Time;durP1;ratioP1;P1;durP2;ratioP2;P2;SDS_P1;SDS_P2;PMS_P1;PMS_P2;Temp;Humidity;BMP_temperature;BMP_pressure;BME280_temperature;BME280_humidity;BME280_pressure;Samples;Min_cycle;Max_cycle;Signal;HPM_P1;HPM_P2
2021/03/30 00:01:24;;;;;;;13.52;6.35;;;;;;;12.39;40.02;101155.28;5040222;28;20256;-72
2021/03/30 00:03:49;;;;;;;18.25;6.75;;;;;;;12.46;40.30;101156.41;5040589;28;20299;-66
2021/03/30 00:06:15;;;;;;;18.35;7.20;;;;;;;12.38;40.52;101143.84;5038996;28;20079;-71
2021/03/30 00:08:41;;;;;;;18.70;6.97;;;;;;;12.39;40.04;101150.81;5040590;28;20320;-71
2021/03/30 00:11:07;;;;;;;19.08;8.15;;;;;;;12.32;40.58;101140.91;5039983;28;20200;-66
2021/03/30 00:13:32;;;;;;;19.92;7.57;;;;;;;12.43;40.04;101138.09;5038940;28;20029;-71
2021/03/30 00:15:58;;;;;;;23.30;8.18;;;;;;;12.08;41.59;101134.16;5040624;28;20033;-66
2021/03/30 00:18:23;;;;;;;17.80;8.05;;;;;;;12.08;41.16;101133.31;5038961;28;20026;-71
2021/03/30 00:20:49;;;;;;;19.73;8.50;;;;;;;12.06;41.86;101135.28;5039316;28;20342;-65
2021/03/30 00:23:14;;;;;;;20.27;8.27;;;;;;;12.05;42.00;101141.56;5040100;28;20212;-66
2021/03/30 00:25:40;;;;;;;29.00;11.05;;;;;;;11.80;42.15;101145.56;5039444;28;20370;-66
2021/03/30 00:28:05;;;;;;;41.13;13.25;;;;;;;11.52;43.63;101142.66;5040733;28;20132;-66
2021/03/30 00:30:31;;;;;;;43.72;14.15;;;;;;;11.49;43.73;101139.44;5039501;28;20375;-71
2021/03/30 00:32:56;;;;;;;48.97;15.23;;;;;;;11.37;44.08;101140.47;5040962;28;20072;-66
2021/03/30 00:35:22;;;;;;;31.65;10.40;;;;;;;11.48;44.05;101132.44;5040393;28;20327;-72
2021/03/30 00:37:49;;;;;;;35.70;10.75;;;;;;;11.51;44.32;101130.38;5039175;28;20040;-66
2021/03/30 00:40:15;;;;;;;75.75;18.55;;;;;;;11.74;43.38;101132.81;5040567;28;20036;-71
2021/03/30 00:42:40;;;;;;;68.40;24.83;;;;;;;11.88;42.87;101135.13;5040179;28;20021;-66
2021/03/30 00:45:08;;;;;;;43.58;16.60;;;;;;;12.04;43.96;101134.59;5039747;28;20063;-66
2021/03/30 00:47:35;;;;;;;34.03;13.40;;;;;;;12.07;43.35;101135.16;5039321;28;20010;-71
2021/03/30 00:50:01;;;;;;;20.63;8.77;;;;;;;12.04;44.83;101132.78;5038860;28;20120;-66
2021/03/30 00:52:27;;;;;;;13.93;6.32;;;;;;;11.98;45.31;101135.97;5043054;28;20148;-65
2021/03/30 00:54:52;;;;;;;14.88;5.55;;;;;;;11.98;45.02;101132.47;5042431;28;20239;-71
2021/03/30 00:57:18;;;;;;;11.02;5.13;;;;;;;11.93;45.15;101124.94;5043057;28;20100;-71
2021/03/30 00:59:44;;;;;;;10.02;5.43;;;;;;;11.91;45.46;101126.03;5043684;28;20247;-67
2021/03/30 01:02:11;;;;;;;23.10;7.07;;;;;;;11.89;45.30;101118.22;5043689;28;20079;-66
2021/03/30 01:04:36;;;;;;;13.77;6.70;;;;;;;11.96;44.04;101119.34;5041711;28;20025;-66
2021/03/30 01:07:02;;;;;;;17.45;8.10;;;;;;;12.05;43.97;101117.69;5043708;28;20025;-72
2021/03/30 01:10:09;;;;;;;25.75;9.38;;;;;;;12.15;43.74;101110.56;5042072;28;20274;-67
2021/03/30 01:13:13;;;;;;;16.85;7.55;;;;;;;12.14;44.44;101117.69;5050564;28;20041;-65
2021/03/30 01:16:14;;;;;;;22.90;7.63;;;;;;;12.20;45.30;101120.75;5044622;28;20036;-66
2021/03/30 01:19:08;;;;;;;17.63;7.95;;;;;;;12.18;44.11;101118.25;5043773;28;20029;-71
2021/03/30 01:21:34;;;;;;;17.92;7.50;;;;;;;12.17;44.91;101118.38;5043459;28;20039;-66
2021/03/30 01:24:15;;;;;;;18.88;8.18;;;;;;;12.09;44.55;101106.63;5041860;28;20030;-71
2021/03/30 01:26:49;;;;;;;22.85;8.10;;;;;;;11.90;45.03;101111.94;5042775;28;20087;-71
2021/03/30 01:29:23;;;;;;;31.58;10.48;;;;;;;11.79;45.66;101115.53;5041873;28;20037;-71
2021/03/30 01:31:55;;;;;;;20.65;8.55;;;;;;;11.79;45.86;101117.34;5046204;28;20289;-67
2021/03/30 01:34:22;;;;;;;20.85;7.93;;;;;;;11.61;45.70;101111.00;5042732;28;20029;-65
2021/03/30 01:36:50;;;;;;;20.83;8.25;;;;;;;11.33;46.38;101109.91;5042241;28;20147;-72
2021/03/30 01:39:17;;;;;;;25.38;9.63;;;;;;;11.08;46.78;101101.41;5043194;28;20033;-69
2021/03/30 01:41:46;;;;;;;19.98;7.35;;;;;;;11.00;47.44;101109.19;5042800;28;20026;-74
2021/03/30 01:44:14;;;;;;;13.93;6.10;;;;;;;10.79;47.12;101101.25;5043494;28;20021;-67
2021/03/30 01:46:42;;;;;;;17.20;7.18;;;;;;;10.78;47.25;101104.88;5043970;28;20116;-67
2021/03/30 01:49:09;;;;;;;16.17;7.18;;;;;;;10.59;47.31;101107.41;5042849;28;20017;-73
2021/03/30 01:51:36;;;;;;;18.05;7.82;;;;;;;10.59;47.94;101107.41;5042397;28;20263;-72
2021/03/30 01:54:02;;;;;;;14.82;7.03;;;;;;;10.64;47.84;101118.44;5042317;28;20084;-67
2021/03/30 01:56:30;;;;;;;14.18;5.93;;;;;;;9.90;49.36;101128.91;5043244;28;20343;-73
2021/03/30 01:58:58;;;;;;;10.20;5.45;;;;;;;9.21;50.48;101122.94;5042949;28;20029;-65
2021/03/30 02:01:24;;;;;;;12.32;5.35;;;;;;;9.00;50.61;101129.91;5041444;28;20052;-65
2021/03/30 02:03:50;;;;;;;8.68;4.90;;;;;;;8.86;51.20;101130.97;5045078;28;20037;-66
2021/03/30 02:06:16;;;;;;;9.95;4.68;;;;;;;8.60;52.27;101134.72;5041332;28;20033;-72
2021/03/30 02:08:43;;;;;;;12.88;5.22;;;;;;;8.20;53.08;101132.34;5041268;28;20047;-66
2021/03/30 02:11:09;;;;;;;11.00;5.22;;;;;;;7.58;54.74;101143.03;5042243;28;20083;-66
2021/03/30 02:16:08;;;;;;;9.82;4.28;;;;;;;7.36;53.95;101145.50;5041107;28;20037;-71
2021/03/30 02:18:45;;;;;;;8.63;3.55;;;;;;;7.40;53.74;101146.13;5042524;28;20109;-65
2021/03/30 02:21:18;;;;;;;8.07;3.13;;;;;;;7.39;52.94;101133.88;5041808;28;20339;-65
2021/03/30 02:23:46;;;;;;;7.00;3.08;;;;;;;7.59;53.50;101143.88;5041722;28;20260;-65
2021/03/30 02:26:15;;;;;;;7.22;3.33;;;;;;;7.82;52.32;101148.34;5041518;28;20283;-70
2021/03/30 02:31:10;;;;;;;5.75;3.40;;;;;;;7.65;52.98;101146.91;5040964;28;20057;-71
2021/03/30 02:33:37;;;;;;;5.30;2.80;;;;;;;7.49;52.59;101156.00;5041964;28;20243;-65
2021/03/30 02:36:03;;;;;;;6.00;3.63;;;;;;;7.09;53.87;101148.22;5041844;28;20258;-71
2021/03/30 02:38:32;;;;;;;6.50;3.38;;;;;;;7.02;54.59;101154.84;5041323;28;20097;-66
2021/03/30 02:40:59;;;;;;;7.38;2.97;;;;;;;7.04;54.18;101164.34;5041800;28;20075;-72
2021/03/30 02:43:26;;;;;;;6.80;3.30;;;;;;;7.00;54.91;101168.13;5042234;28;20057;-71
2021/03/30 02:45:54;;;;;;;10.60;4.50;;;;;;;6.87;54.65;101150.63;5041459;28;20316;-65
2021/03/30 02:48:20;;;;;;;8.45;4.10;;;;;;;7.32;53.90;101160.66;5041065;28;20041;-65
2021/03/30 02:50:48;;;;;;;8.65;4.38;;;;;;;7.68;53.08;101159.03;5040821;28;20092;-71
2021/03/30 02:53:14;;;;;;;10.80;4.55;;;;;;;7.94;51.48;101165.06;5041904;28;20068;-71
2021/03/30 02:55:41;;;;;;;9.30;4.80;;;;;;;8.16;50.90;101151.16;5042027;28;20045;-70
2021/03/30 02:58:07;;;;;;;10.45;4.57;;;;;;;8.38;50.75;101147.84;5044274;28;20087;-70
2021/03/30 03:00:34;;;;;;;9.98;5.38;;;;;;;8.38;50.55;101153.13;5046020;28;20037;-72
2021/03/30 03:03:08;;;;;;;10.98;5.28;;;;;;;8.43;50.52;101158.91;5057623;28;20040;-68
2021/03/30 03:05:34;;;;;;;10.98;5.32;;;;;;;8.37;51.01;101154.09;5056227;28;20048;-67
2021/03/30 03:08:01;;;;;;;9.80;4.35;;;;;;;8.42;50.20;101155.44;5052881;28;20036;-65
2021/03/30 03:10:27;;;;;;;12.30;4.50;;;;;;;8.19;50.25;101153.59;5039673;28;20112;-71
2021/03/30 03:12:54;;;;;;;8.35;3.95;;;;;;;8.15;50.28;101157.41;5042741;28;20394;-65
2021/03/30 03:15:22;;;;;;;7.85;3.67;;;;;;;8.14;50.30;101147.81;5039927;28;20045;-65
2021/03/30 03:17:49;;;;;;;8.15;3.78;;;;;;;8.07;50.49;101163.22;5042791;28;20099;-65
2021/03/30 03:20:18;;;;;;;9.15;4.20;;;;;;;7.95;50.92;101162.31;5041283;28;20045;-70
2021/03/30 03:22:44;;;;;;;9.63;4.53;;;;;;;7.96;50.75;101157.91;5040252;28;20041;-65
2021/03/30 03:25:13;;;;;;;11.10;4.55;;;;;;;8.17;51.09;101164.25;5040890;28;20029;-65
2021/03/30 03:27:39;;;;;;;7.75;4.13;;;;;;;8.30;50.61;101166.84;5041088;28;20075;-65
2021/03/30 03:30:09;;;;;;;8.10;4.70;;;;;;;8.12;50.68;101169.03;5041020;28;20033;-70
2021/03/30 03:32:35;;;;;;;8.93;4.35;;;;;;;8.15;50.87;101178.50;5039537;28;20171;-65
2021/03/30 03:35:01;;;;;;;9.25;5.20;;;;;;;8.38;49.48;101171.59;5043673;28;20037;-71
2021/03/30 03:37:27;;;;;;;13.02;4.22;;;;;;;8.36;50.06;101176.16;5040021;28;20037;-69
2021/03/30 03:39:52;;;;;;;9.68;4.35;;;;;;;8.28;49.36;101177.50;5039731;28;20071;-65
2021/03/30 03:42:18;;;;;;;9.32;4.45;;;;;;;8.32;49.93;101178.13;5040800;28;20021;-70
2021/03/30 03:44:44;;;;;;;11.45;3.85;;;;;;;8.40;49.67;101185.53;5039071;28;20148;-70
2021/03/30 03:47:09;;;;;;;6.47;3.47;;;;;;;8.11;51.51;101190.25;5041341;28;20041;-70
2021/03/30 03:49:34;;;;;;;19.02;5.07;;;;;;;7.93;50.59;101185.34;5040523;28;20029;-65
2021/03/30 03:52:05;;;;;;;11.35;4.70;;;;;;;7.84;50.95;101179.88;5039737;28;20434;-65
2021/03/30 03:54:33;;;;;;;8.55;4.03;;;;;;;7.94;49.79;101178.25;5040611;28;20097;-65
2021/03/30 03:57:31;;;;;;;7.40;4.38;;;;;;;7.94;49.60;101179.09;5039902;28;20057;-65
2021/03/30 03:59:58;;;;;;;13.52;5.78;;;;;;;8.07;49.05;101151.84;5040420;28;20263;-65
2021/03/30 04:02:37;;;;;;;7.32;4.13;;;;;;;8.23;48.38;101162.97;5039753;28;20021;-70
2021/03/30 04:05:13;;;;;;;10.00;4.70;;;;;;;8.29;48.40;101166.00;5039364;28;20056;-71
2021/03/30 04:07:55;;;;;;;12.82;4.82;;;;;;;8.36;48.76;101169.09;5038812;28;20030;-66
2021/03/30 04:10:25;;;;;;;10.25;4.18;;;;;;;7.99;49.02;101181.41;5040012;28;20042;-70
2021/03/30 04:12:51;;;;;;;7.57;4.20;;;;;;;7.81;49.42;101167.75;5040390;28;20259;-65
2021/03/30 04:15:21;;;;;;;9.93;4.35;;;;;;;7.79;49.91;101176.72;5040316;28;20026;-70
2021/03/30 04:17:47;;;;;;;7.18;3.60;;;;;;;7.63;49.93;101169.91;5040047;28;20029;-70
2021/03/30 04:20:15;;;;;;;9.43;4.05;;;;;;;7.42;51.27;101174.03;5038445;28;20032;-65
2021/03/30 04:22:43;;;;;;;10.68;4.47;;;;;;;7.76;50.11;101174.31;5043054;28;20020;-65
2021/03/30 04:25:10;;;;;;;10.93;5.03;;;;;;;7.97;50.29;101172.75;5040094;28;20057;-66
2021/03/30 04:27:35;;;;;;;12.18;4.85;;;;;;;8.10;49.52;101167.44;5043742;28;20212;-65
2021/03/30 04:30:01;;;;;;;9.23;4.82;;;;;;;8.26;49.23;101168.00;5076210;28;20044;-65
2021/03/30 04:32:27;;;;;;;7.88;4.00;;;;;;;8.47;48.91;101165.66;5043191;28;20285;-70
2021/03/30 04:34:52;;;;;;;11.35;4.63;;;;;;;8.55;48.04;101169.41;5042579;28;20056;-65
2021/03/30 04:37:18;;;;;;;11.20;4.38;;;;;;;8.65;47.75;101159.00;5043638;28;20025;-66
2021/03/30 04:39:44;;;;;;;9.48;4.32;;;;;;;8.76;48.63;101172.22;5043044;28;20060;-65
2021/03/30 04:42:09;;;;;;;11.25;4.80;;;;;;;8.76;48.05;101177.50;5045166;28;20470;-65
2021/03/30 04:44:35;;;;;;;10.95;4.32;;;;;;;8.67;48.47;101180.00;5043002;28;20315;-69
2021/03/30 04:47:00;;;;;;;10.68;4.70;;;;;;;8.46;48.94;101183.28;5043618;28;20033;-70
2021/03/30 04:49:26;;;;;;;32.10;10.38;;;;;;;8.42;48.90;101189.75;5043812;28;20031;-65
2021/03/30 04:51:51;;;;;;;33.83;7.88;;;;;;;8.58;49.59;101192.94;5043641;28;20037;-65
2021/03/30 04:54:17;;;;;;;22.10;7.05;;;;;;;8.78;48.56;101198.53;5046780;28;20040;-70
2021/03/30 04:56:42;;;;;;;15.07;6.63;;;;;;;8.42;49.64;101199.47;5043449;28;20056;-65
2021/03/30 04:59:08;;;;;;;19.63;6.85;;;;;;;8.32;49.98;101199.22;5043760;28;20064;-65
2021/03/30 05:01:33;;;;;;;13.40;5.43;;;;;;;8.17;51.01;101209.09;5043837;28;20067;-65
2021/03/30 05:03:59;;;;;;;15.88;5.07;;;;;;;8.31;50.58;101200.19;5043818;28;20323;-66
2021/03/30 05:06:24;;;;;;;18.10;7.38;;;;;;;8.26;50.01;101207.59;5043275;28;20037;-71
2021/03/30 05:08:50;;;;;;;16.02;6.32;;;;;;;8.52;50.60;101203.09;5043955;28;20041;-66
2021/03/30 05:11:15;;;;;;;11.57;5.35;;;;;;;8.51;50.48;101204.91;5042985;28;20033;-70
2021/03/30 05:13:40;;;;;;;9.80;5.45;;;;;;;8.41;50.55;101206.53;5043577;28;20041;-65
2021/03/30 05:16:06;;;;;;;18.52;8.90;;;;;;;8.72;49.76;101206.91;5042124;28;20048;-65
2021/03/30 05:18:32;;;;;;;28.25;15.05;;;;;;;8.81;49.54;101207.06;5043396;28;20235;-65
2021/03/30 05:20:57;;;;;;;19.92;10.50;;;;;;;9.01;48.04;101210.00;5043673;28;20191;-65
2021/03/30 05:23:23;;;;;;;22.98;8.85;;;;;;;9.04;47.20;101218.53;5041858;28;20132;-70
2021/03/30 05:25:48;;;;;;;16.50;8.75;;;;;;;9.17;48.01;101214.00;5041968;28;20105;-65
2021/03/30 05:28:13;;;;;;;23.90;10.05;;;;;;;9.47;47.44;101223.19;5043879;28;20117;-73
2021/03/30 05:30:39;;;;;;;21.35;7.75;;;;;;;9.53;47.10;101220.94;5041879;28;20318;-67
2021/03/30 05:33:05;;;;;;;15.18;7.18;;;;;;;9.48;47.07;101216.94;5043276;28;20086;-67
2021/03/30 05:35:30;;;;;;;40.90;8.40;;;;;;;9.71;47.51;101225.72;5042543;28;21287;-73
2021/03/30 05:37:56;;;;;;;20.40;10.30;;;;;;;9.93;46.92;101228.38;5041521;28;20201;-68
2021/03/30 05:40:21;;;;;;;30.50;14.40;;;;;;;10.16;46.43;101226.53;5042936;28;20228;-67
2021/03/30 05:42:48;;;;;;;13.88;6.68;;;;;;;10.40;45.30;101231.69;5041596;28;20031;-73
2021/03/30 05:45:16;;;;;;;14.88;5.78;;;;;;;10.55;45.57;101220.72;5042887;28;20052;-67
2021/03/30 05:47:42;;;;;;;22.13;6.35;;;;;;;10.80;44.56;101229.28;5042154;28;20040;-68
2021/03/30 05:50:12;;;;;;;14.57;6.40;;;;;;;10.94;44.61;101215.72;5042603;28;20029;-73
2021/03/30 05:52:46;;;;;;;15.70;6.28;;;;;;;11.16;44.99;101222.69;5042654;28;20060;-68
2021/03/30 05:55:26;;;;;;;10.23;5.32;;;;;;;11.27;43.15;101225.28;5041176;28;20029;-73
2021/03/30 05:57:53;;;;;;;15.52;5.60;;;;;;;11.70;42.57;101221.63;5045902;28;20421;-65
2021/03/30 06:00:25;;;;;;;14.45;5.95;;;;;;;12.31;40.93;101227.72;5041784;28;20029;-70
2021/03/30 06:02:57;;;;;;;8.77;5.47;;;;;;;12.70;39.61;101220.63;5041925;28;20022;-72
2021/03/30 06:05:23;;;;;;;12.15;6.25;;;;;;;13.08;38.62;101219.78;5041111;28;20262;-66
2021/03/30 06:07:51;;;;;;;14.50;6.80;;;;;;;13.66;37.74;101224.16;5042107;28;20255;-66
2021/03/30 06:10:20;;;;;;;9.02;5.15;;;;;;;13.94;37.23;101225.84;5042274;28;20328;-65
2021/03/30 06:12:46;;;;;;;12.07;5.47;;;;;;;14.39;37.06;101233.03;5042448;28;20033;-71
2021/03/30 06:15:15;;;;;;;10.05;5.35;;;;;;;14.74;36.61;101231.44;5073132;28;20043;-65
2021/03/30 06:17:40;;;;;;;19.58;6.57;;;;;;;15.00;36.36;101224.31;5043720;28;20052;-65
2021/03/30 06:20:08;;;;;;;21.80;7.53;;;;;;;15.29;34.58;101224.88;5041070;28;20096;-66
2021/03/30 06:22:46;;;;;;;26.08;10.95;;;;;;;15.34;34.16;101219.06;5041943;28;20103;-71
2021/03/30 06:25:12;;;;;;;27.23;11.02;;;;;;;15.50;34.27;101223.66;5043593;28;20089;-65
2021/03/30 06:27:37;;;;;;;15.73;7.65;;;;;;;15.68;33.95;101219.16;5042992;28;20261;-71
2021/03/30 06:30:06;;;;;;;20.48;6.97;;;;;;;15.80;34.25;101222.38;5044906;28;20216;-70
2021/03/30 06:32:32;;;;;;;15.25;6.35;;;;;;;15.92;33.48;101216.59;5041234;28;20044;-65
2021/03/30 06:35:13;;;;;;;17.65;8.70;;;;;;;16.15;33.07;101229.34;5042960;28;20307;-65
2021/03/30 06:37:41;;;;;;;17.23;7.70;;;;;;;16.23;33.66;101229.38;5040122;28;20315;-66
2021/03/30 06:40:19;;;;;;;17.83;7.97;;;;;;;16.40;33.12;101215.06;5041378;28;20261;-67
2021/03/30 06:43:12;;;;;;;17.90;6.88;;;;;;;16.56;32.26;101232.97;5041641;28;20029;-72
2021/03/30 06:45:37;;;;;;;15.98;6.88;;;;;;;16.78;31.59;101228.88;5041275;28;20033;-66
2021/03/30 06:48:03;;;;;;;10.73;5.47;;;;;;;17.00;32.10;101230.88;5042476;28;20036;-71
2021/03/30 06:50:34;;;;;;;17.02;5.40;;;;;;;17.17;31.58;101231.72;5049956;28;20045;-71
2021/03/30 06:53:12;;;;;;;16.80;5.07;;;;;;;17.55;31.67;101222.94;5056050;28;20047;-71
2021/03/30 06:55:57;;;;;;;17.83;4.47;;;;;;;17.82;30.88;101229.78;5057800;28;20033;-66
2021/03/30 06:58:23;;;;;;;8.73;4.10;;;;;;;17.91;30.18;101232.44;5040091;28;20044;-71
2021/03/30 07:00:49;;;;;;;8.95;4.60;;;;;;;18.04;31.27;101230.84;5041550;28;20017;-71
2021/03/30 07:03:21;;;;;;;15.00;5.22;;;;;;;17.92;30.86;101223.38;5045403;28;20047;-70
2021/03/30 07:05:49;;;;;;;14.63;4.97;;;;;;;17.90;30.58;101220.03;5050738;28;20495;-71
2021/03/30 07:08:15;;;;;;;9.75;4.75;;;;;;;18.18;29.83;101229.28;5050211;28;20058;-71
2021/03/30 07:10:46;;;;;;;9.00;4.35;;;;;;;18.39;29.74;101226.81;5051572;28;20056;-71
2021/03/30 07:13:14;;;;;;;7.72;4.28;;;;;;;18.44;29.87;101224.44;5053829;28;20028;-65
2021/03/30 07:15:40;;;;;;;10.10;4.15;;;;;;;18.56;28.99;101229.41;5051903;28;20319;-65
2021/03/30 07:18:27;;;;;;;7.72;4.05;;;;;;;18.57;28.71;101236.44;5052963;28;20067;-67
2021/03/30 07:20:53;;;;;;;13.65;4.53;;;;;;;18.84;28.83;101230.59;5050066;28;20030;-65
2021/03/30 07:23:26;;;;;;;11.13;4.25;;;;;;;18.88;27.62;101228.38;5051243;28;20029;-72
2021/03/30 07:26:00;;;;;;;8.75;4.07;;;;;;;18.71;27.63;101239.22;5050221;28;20159;-70
2021/03/30 07:28:34;;;;;;;10.52;4.00;;;;;;;18.70;27.66;101240.22;5050979;28;20047;-70
2021/03/30 07:31:06;;;;;;;9.82;4.35;;;;;;;18.95;26.58;101238.22;5051518;28;20049;-70
2021/03/30 07:33:42;;;;;;;11.93;4.60;;;;;;;19.20;27.19;101230.78;5049558;28;20032;-65
2021/03/30 07:36:10;;;;;;;11.43;4.13;;;;;;;19.26;26.36;101239.97;5050354;28;20029;-65
2021/03/30 07:38:44;;;;;;;12.02;4.93;;;;;;;19.50;26.40;101237.03;5052036;28;20090;-70
2021/03/30 07:41:10;;;;;;;9.23;3.85;;;;;;;19.42;25.83;101223.69;5056914;28;20092;-70
2021/03/30 07:43:36;;;;;;;11.25;3.92;;;;;;;19.62;25.91;101240.97;5059629;28;20043;-65
2021/03/30 07:46:03;;;;;;;8.05;3.90;;;;;;;19.80;25.25;101243.31;5054956;28;20049;-65
2021/03/30 07:48:31;;;;;;;12.90;4.85;;;;;;;19.70;26.06;101238.19;5048301;28;20329;-65
2021/03/30 07:51:19;;;;;;;10.32;4.00;;;;;;;19.68;25.25;101250.13;5052133;28;20040;-67
2021/03/30 07:53:56;;;;;;;6.55;3.63;;;;;;;19.73;24.80;101237.81;5053075;28;20377;-69
2021/03/30 07:56:24;;;;;;;8.45;3.80;;;;;;;19.78;24.50;101245.34;5060052;28;20254;-65
2021/03/30 07:58:50;;;;;;;10.82;3.63;;;;;;;19.34;25.98;101250.63;5056000;28;20203;-65
2021/03/30 08:01:19;;;;;;;9.50;3.60;;;;;;;18.96;25.46;101252.47;5052861;28;20341;-65
2021/03/30 08:03:45;;;;;;;6.28;3.60;;;;;;;18.57;26.54;101250.69;5051632;28;20037;-65
2021/03/30 08:06:17;;;;;;;15.43;3.97;;;;;;;18.58;26.12;101251.50;5050150;28;20064;-65
2021/03/30 08:08:58;;;;;;;7.18;4.60;;;;;;;18.90;25.12;101232.56;5055491;28;20086;-65
2021/03/30 08:11:38;;;;;;;7.45;3.33;;;;;;;19.38;23.94;101241.19;5059179;28;20029;-66
2021/03/30 08:14:09;;;;;;;10.40;3.63;;;;;;;19.59;23.81;101245.88;5052727;28;20033;-70
2021/03/30 08:16:41;;;;;;;7.32;3.60;;;;;;;19.83;23.95;101242.09;5050249;28;20048;-70
2021/03/30 08:19:09;;;;;;;7.40;4.38;;;;;;;19.76;24.09;101234.75;5049110;28;20274;-70
2021/03/30 08:21:54;;;;;;;6.40;3.63;;;;;;;19.04;26.63;101234.44;5052860;28;20097;-65
2021/03/30 08:24:24;;;;;;;7.75;3.70;;;;;;;18.99;26.04;101238.69;5048995;28;20052;-65
2021/03/30 08:26:49;;;;;;;10.98;3.72;;;;;;;18.72;26.00;101232.84;5049182;28;20106;-70
2021/03/30 08:29:19;;;;;;;25.48;4.93;;;;;;;19.01;26.42;101231.28;5051719;28;20307;-65
2021/03/30 08:31:55;;;;;;;8.27;3.65;;;;;;;19.28;25.50;101230.69;5050088;28;20040;-71
2021/03/30 08:34:26;;;;;;;7.53;3.97;;;;;;;19.25;25.95;101231.06;5051579;28;20059;-71
2021/03/30 08:36:58;;;;;;;11.27;3.83;;;;;;;19.35;24.95;101222.75;5054371;28;20032;-70
2021/03/30 08:39:24;;;;;;;7.70;3.53;;;;;;;19.29;24.62;101228.84;5051243;28;20044;-65
2021/03/30 08:41:51;;;;;;;8.18;3.28;;;;;;;19.37;24.81;101218.84;5049426;28;20037;-65
2021/03/30 08:44:43;;;;;;;8.63;3.58;;;;;;;19.35;24.49;101217.38;5053617;28;20358;-71
2021/03/30 08:47:24;;;;;;;10.77;3.60;;;;;;;19.32;24.58;101217.75;5051239;28;20716;-65
2021/03/30 08:49:49;;;;;;;10.93;3.30;;;;;;;19.26;24.85;101215.78;5050757;28;20029;-65
2021/03/30 08:52:17;;;;;;;5.57;3.55;;;;;;;19.43;23.92;101219.97;5050150;28;20025;-65
2021/03/30 08:54:53;;;;;;;6.00;3.33;;;;;;;19.38;24.69;101214.31;5051269;28;20033;-65
2021/03/30 08:57:30;;;;;;;11.30;3.88;;;;;;;19.36;24.42;101224.41;5049499;28;20040;-70
2021/03/30 08:59:56;;;;;;;6.93;3.50;;;;;;;19.67;24.90;101217.06;5049527;28;20272;-70
2021/03/30 09:02:29;;;;;;;8.05;3.00;;;;;;;19.64;25.62;101219.28;5051861;28;20029;-70
2021/03/30 09:05:02;;;;;;;9.85;3.63;;;;;;;19.48;25.16;101222.94;5052643;28;20069;-65
2021/03/30 09:07:41;;;;;;;10.07;3.60;;;;;;;19.20;24.92;101216.53;5051784;28;20033;-70
2021/03/30 09:10:07;;;;;;;9.57;3.63;;;;;;;19.35;24.78;101210.16;5049858;28;20356;-71
2021/03/30 09:12:33;;;;;;;8.98;3.70;;;;;;;19.38;24.61;101208.94;5051247;28;20079;-66
2021/03/30 09:15:06;;;;;;;7.75;3.70;;;;;;;19.40;24.85;101205.06;5052426;28;20055;-70
2021/03/30 09:17:31;;;;;;;7.20;3.47;;;;;;;19.53;24.28;101207.13;5054440;28;20028;-71
2021/03/30 09:19:59;;;;;;;6.72;3.35;;;;;;;19.55;24.14;101202.41;5055921;28;20040;-70
2021/03/30 09:22:39;;;;;;;9.18;4.03;;;;;;;19.12;23.84;101212.06;5042280;28;20091;-65
2021/03/30 09:27:46;;;;;;;5.38;3.47;;;;;;;19.01;24.10;101189.19;5042894;28;20060;-66
2021/03/30 09:30:17;;;;;;;8.55;4.82;;;;;;;19.06;24.09;101200.19;5042067;28;20038;-65
2021/03/30 09:32:44;;;;;;;14.05;3.95;;;;;;;18.54;24.45;101194.69;5046225;28;20030;-70
2021/03/30 09:35:21;;;;;;;8.77;4.13;;;;;;;18.21;25.40;101196.75;5058083;28;20215;-65
2021/03/30 09:37:53;;;;;;;8.13;4.00;;;;;;;18.07;26.20;101197.50;5042961;28;20032;-65
2021/03/30 09:40:22;;;;;;;11.82;4.10;;;;;;;18.24;26.19;101193.72;5042709;28;20048;-65
2021/03/30 09:42:48;;;;;;;12.40;4.35;;;;;;;18.35;26.46;101192.50;5044283;28;20030;-70
2021/03/30 09:45:19;;;;;;;9.40;3.70;;;;;;;18.31;25.87;101191.16;5042464;28;20049;-65
2021/03/30 09:47:45;;;;;;;7.30;4.43;;;;;;;18.38;25.52;101182.25;5045970;28;20072;-66
2021/03/30 09:50:12;;;;;;;7.35;3.90;;;;;;;18.56;25.07;101181.09;5041973;28;20017;-72
2021/03/30 09:52:38;;;;;;;12.80;4.32;;;;;;;18.37;25.97;101174.38;5074062;28;20338;-66
2021/03/30 09:55:08;;;;;;;6.60;3.58;;;;;;;18.20;24.29;101173.66;5045965;28;20041;-65
2021/03/30 09:57:33;;;;;;;8.85;4.20;;;;;;;18.08;24.82;101164.34;5041549;28;20096;-65
2021/03/30 10:00:00;;;;;;;7.15;3.53;;;;;;;17.67;27.21;101174.38;5044715;28;20056;-65
2021/03/30 10:02:32;;;;;;;7.45;3.65;;;;;;;17.35;25.80;101164.59;5041588;28;20345;-70
2021/03/30 10:05:00;;;;;;;9.80;3.33;;;;;;;17.39;25.84;101164.06;5040195;28;20052;-65
2021/03/30 10:07:40;;;;;;;7.35;3.38;;;;;;;17.48;25.57;101163.03;5041966;28;20331;-67
2021/03/30 10:10:10;;;;;;;7.63;2.95;;;;;;;17.41;25.63;101158.53;5051809;28;20213;-65
2021/03/30 10:13:03;;;;;;;6.45;3.20;;;;;;;17.36;25.53;101155.53;5054550;28;20211;-65
2021/03/30 10:15:34;;;;;;;8.80;3.65;;;;;;;17.07;25.11;101154.28;5051132;28;20033;-67
2021/03/30 10:18:01;;;;;;;9.60;3.90;;;;;;;17.13;26.36;101147.41;5041754;28;20120;-70
2021/03/30 10:20:26;;;;;;;10.77;3.80;;;;;;;16.88;26.82;101147.44;5046888;28;20033;-70
2021/03/30 10:22:55;;;;;;;12.20;3.72;;;;;;;16.75;26.78;101146.28;5050595;28;20037;-70
2021/03/30 10:25:22;;;;;;;7.00;3.80;;;;;;;16.79;26.89;101139.59;5050914;28;20055;-66
2021/03/30 10:27:53;;;;;;;8.13;3.50;;;;;;;17.18;26.96;101147.72;5052526;28;20037;-71
2021/03/30 10:30:34;;;;;;;12.02;4.07;;;;;;;17.45;26.03;101146.47;5051109;28;20025;-71
2021/03/30 10:33:04;;;;;;;8.60;3.50;;;;;;;17.38;26.13;101134.78;5055845;28;20052;-71
2021/03/30 10:35:30;;;;;;;9.50;3.42;;;;;;;17.41;25.38;101135.28;5057387;28;20025;-65
2021/03/30 10:37:56;;;;;;;5.57;3.15;;;;;;;17.50;27.79;101136.91;5052539;28;20029;-69
2021/03/30 10:40:29;;;;;;;15.82;3.60;;;;;;;17.28;26.51;101132.31;5059822;28;20264;-71
2021/03/30 10:42:54;;;;;;;7.18;3.35;;;;;;;17.02;26.05;101127.19;5060220;28;20116;-71
2021/03/30 10:45:28;;;;;;;7.53;3.17;;;;;;;17.04;25.82;101130.53;5052935;28;20318;-65
2021/03/30 10:47:59;;;;;;;6.50;3.35;;;;;;;17.06;25.53;101114.31;5060645;28;20111;-65
2021/03/30 10:50:25;;;;;;;7.35;3.35;;;;;;;17.35;26.46;101116.38;5060696;28;20037;-71
2021/03/30 10:52:51;;;;;;;9.73;3.15;;;;;;;17.71;26.19;101117.63;5060063;28;20033;-66
2021/03/30 10:55:18;;;;;;;5.82;3.20;;;;;;;17.94;25.77;101117.69;5057762;28;20032;-70
2021/03/30 10:57:47;;;;;;;7.13;3.45;;;;;;;17.92;24.54;101100.09;5050619;28;20087;-71
2021/03/30 11:00:16;;;;;;;5.50;3.45;;;;;;;17.96;24.40;101098.75;5052068;28;20493;-70
2021/03/30 11:02:41;;;;;;;6.50;3.20;;;;;;;18.25;24.51;101100.72;5050339;28;20037;-66
2021/03/30 11:05:08;;;;;;;10.10;4.05;;;;;;;18.45;24.70;101091.19;5059168;28;20335;-66
2021/03/30 11:07:34;;;;;;;7.93;3.50;;;;;;;18.42;25.97;101084.31;5055255;28;20032;-72
2021/03/30 11:10:00;;;;;;;9.30;4.10;;;;;;;18.34;25.26;101084.38;5056677;28;20072;-65
2021/03/30 11:12:26;;;;;;;11.25;3.67;;;;;;;18.30;25.55;101101.03;5051558;28;20037;-66
2021/03/30 11:14:51;;;;;;;6.25;3.55;;;;;;;18.45;25.48;101083.97;5052894;28;20048;-71
2021/03/30 11:17:17;;;;;;;8.93;3.53;;;;;;;18.65;24.96;101078.13;5050488;28;20037;-70
2021/03/30 11:19:42;;;;;;;5.28;2.97;;;;;;;18.64;24.54;101079.97;5059627;28;20045;-65
2021/03/30 11:22:09;;;;;;;8.80;3.33;;;;;;;18.72;24.10;101074.53;5058504;28;20025;-65
2021/03/30 11:24:39;;;;;;;7.13;3.00;;;;;;;18.60;23.40;101059.03;5051720;28;20033;-65
2021/03/30 11:27:05;;;;;;;6.55;3.10;;;;;;;18.45;22.58;101075.09;5051465;28;20032;-71
2021/03/30 11:35:03;;;;;;;24.85;3.92;;;;;;;18.09;24.62;101067.66;5051153;28;20052;-71
2021/03/30 11:39:54;;;;;;;6.40;3.30;;;;;;;18.32;23.07;101053.41;5058076;28;20098;-71
2021/03/30 11:42:19;;;;;;;8.98;3.10;;;;;;;18.18;23.65;101055.03;5051141;28;20101;-66
2021/03/30 11:44:45;;;;;;;8.65;2.90;;;;;;;18.03;24.23;101049.63;5049498;28;20339;-71
2021/03/30 11:47:10;;;;;;;5.32;3.10;;;;;;;17.99;24.30;101053.66;5049227;28;20066;-71